createdAt,value
2023-03-25T00:03:04.453Z,98703.69
2023-03-25T00:08:06.399Z,98700.59
2023-03-25T00:13:08.420Z,98696.47
2023-03-25T00:18:09.992Z,98687.34
2023-03-25T00:23:14.424Z,98681.75
2023-03-25T00:28:17.081Z,98666.78
2023-03-25T00:33:19.280Z,98667.47
2023-03-25T00:38:20.900Z,98670.69
2023-03-25T00:43:22.524Z,98671.56
2023-03-25T00:48:24.184Z,98667.31
2023-03-25T00:53:26.120Z,98669.84
2023-03-25T00:58:27.843Z,98670.81
2023-03-25T01:03:29.542Z,98667.69
2023-03-25T01:08:32.105Z,98667.09
2023-03-25T01:13:34.218Z,98657.72
2023-03-25T01:18:37.944Z,98651.16
2023-03-25T01:23:39.759Z,98647.22
2023-03-25T01:28:42.699Z,98643.06
2023-03-25T01:33:44.324Z,98640.53
2023-03-25T01:38:48.083Z,98638.72
2023-03-25T01:44:08.688Z,98630.84
2023-03-25T01:49:17.167Z,98603.97
2023-03-25T01:54:19.463Z,98589.97
2023-03-25T01:59:27.180Z,98585.00
2023-03-25T02:05:04.944Z,98585.03
2023-03-25T02:10:08.745Z,98590.00
2023-03-25T02:15:11.238Z,98583.81
2023-03-25T02:20:18.780Z,98584.19
2023-03-25T02:25:54.962Z,98578.88
2023-03-25T02:31:05.711Z,98577.22
2023-03-25T02:36:41.517Z,98570.81
2023-03-25T02:41:53.374Z,98566.69
2023-03-25T02:47:00.337Z,98555.91
2023-03-25T02:52:09.375Z,98565.22
2023-03-25T02:57:14.184Z,98552.78
2023-03-25T03:02:17.510Z,98562.09
2023-03-25T03:07:39.809Z,98564.34
2023-03-25T03:12:56.585Z,98555.44
2023-03-25T03:18:27.220Z,98544.72
2023-03-25T03:23:37.099Z,98547.81
2023-03-25T03:28:50.488Z,98558.69
2023-03-25T03:34:05.678Z,98563.44
2023-03-25T03:39:38.163Z,98554.78
2023-03-25T03:44:42.904Z,98570.25
2023-03-25T03:49:53.561Z,98565.69
2023-03-25T03:55:00.816Z,98578.56
2023-03-25T04:00:10.079Z,98577.84
2023-03-25T04:05:17.795Z,98580.53
2023-03-25T04:10:29.863Z,98577.72
2023-03-25T04:15:31.747Z,98581.25
2023-03-25T04:20:36.589Z,98590.34
2023-03-25T04:25:38.415Z,98584.13
2023-03-25T04:30:40.868Z,98584.13
2023-03-25T04:35:42.554Z,98587.66
2023-03-25T04:40:46.771Z,98587.25
2023-03-25T04:45:55.066Z,98598.59
2023-03-25T04:50:59.180Z,98605.63
2023-03-25T04:56:00.775Z,98597.38
2023-03-25T05:01:06.251Z,98589.50
2023-03-25T05:06:08.099Z,98591.97
2023-03-25T05:11:09.781Z,98580.63
2023-03-25T05:16:11.385Z,98599.63
2023-03-25T05:21:13.197Z,98598.94
2023-03-25T05:26:14.875Z,98605.19
2023-03-25T05:31:16.462Z,98590.47
2023-03-25T05:36:18.347Z,98604.34
2023-03-25T05:41:21.378Z,98610.53
2023-03-25T05:46:23.127Z,98614.06
2023-03-25T05:51:26.406Z,98609.72
2023-03-25T05:56:28.140Z,98615.31
2023-03-25T06:01:33.379Z,98628.13
2023-03-25T06:06:36.100Z,98641.25
2023-03-25T06:11:46.779Z,98638.91
2023-03-25T06:16:50.101Z,98640.41
2023-03-25T06:21:52.217Z,98666.34
2023-03-25T06:26:54.028Z,98669.41
2023-03-25T06:31:55.859Z,98673.69
2023-03-25T06:36:57.472Z,98679.91
2023-03-25T06:42:00.305Z,98683.59
2023-03-25T06:47:11.508Z,98687.50
2023-03-25T06:52:18.618Z,98694.59
2023-03-25T06:57:20.288Z,98701.13
2023-03-25T07:02:21.883Z,98696.59
2023-03-25T07:07:23.539Z,98687.50
2023-03-25T07:12:25.337Z,98681.31
2023-03-25T07:17:27.354Z,98691.28
2023-03-25T07:22:29.012Z,98693.59
2023-03-25T07:27:30.942Z,98700.00
2023-03-25T07:32:39.096Z,98686.47
2023-03-25T07:37:40.812Z,98696.56
2023-03-25T07:42:43.831Z,98708.59
2023-03-25T07:48:13.689Z,98711.78
2023-03-25T07:53:15.554Z,98715.31
2023-03-25T07:58:18.491Z,98711.94
2023-03-25T08:03:21.283Z,98717.66
2023-03-25T08:08:23.115Z,98707.41
2023-03-25T08:13:25.853Z,98710.13
2023-03-25T08:18:27.646Z,98701.00
2023-03-25T08:23:29.315Z,98706.25
2023-03-25T08:28:31.422Z,98702.38
2023-03-25T08:33:41.060Z,98729.97
2023-03-25T08:38:42.874Z,98734.09
2023-03-25T08:43:45.202Z,98737.53
2023-03-25T08:48:50.107Z,98739.25
2023-03-25T08:53:52.011Z,98747.78
2023-03-25T08:58:53.655Z,98748.06
2023-03-25T09:03:57.048Z,98756.59
2023-03-25T09:08:58.718Z,98762.19
2023-03-25T09:14:05.013Z,98765.34
2023-03-25T09:19:06.976Z,98775.47
2023-03-25T09:24:09.841Z,98775.16
2023-03-25T09:29:11.441Z,98768.69
2023-03-25T09:34:14.626Z,98754.75
2023-03-25T09:39:17.648Z,98756.72
2023-03-25T09:44:24.832Z,98749.00
2023-03-25T09:49:39.633Z,98751.25
2023-03-25T09:54:48.547Z,98752.00
2023-03-25T09:59:51.873Z,98744.63
2023-03-25T10:05:04.272Z,98748.88
2023-03-25T10:10:44.322Z,98737.94
2023-03-25T10:16:03.896Z,98731.19
2023-03-25T10:21:19.219Z,98709.09
2023-03-25T10:26:31.873Z,98711.56
2023-03-25T10:31:39.534Z,98707.47
2023-03-25T10:36:49.311Z,98713.09
2023-03-25T10:42:01.852Z,98699.81
2023-03-25T10:47:12.585Z,98709.72
2023-03-25T10:52:15.996Z,98703.31
2023-03-25T10:57:26.116Z,98684.75
2023-03-25T11:02:31.369Z,98681.31
2023-03-25T11:07:36.257Z,98678.69
2023-03-25T11:12:43.153Z,98684.28
2023-03-25T11:17:47.386Z,98683.09
2023-03-25T11:22:53.400Z,98676.13
2023-03-25T11:28:02.121Z,98691.81
2023-03-25T11:33:14.434Z,98736.97
2023-03-25T11:38:20.170Z,98720.88
2023-03-25T11:43:24.943Z,98707.00
2023-03-25T11:48:35.066Z,98678.63
2023-03-25T11:53:36.734Z,98668.22
2023-03-25T11:58:40.676Z,98648.53
2023-03-25T12:03:42.458Z,98633.63
2023-03-25T12:08:50.478Z,98640.28
2023-03-25T12:14:12.393Z,98629.41
2023-03-25T12:19:19.633Z,98634.13
2023-03-25T12:24:56.739Z,98617.34
2023-03-25T12:30:38.166Z,98612.22
2023-03-25T12:35:47.310Z,98607.84
2023-03-25T12:41:12.799Z,98605.34
2023-03-25T12:47:11.624Z,98660.09
2023-03-25T12:52:43.127Z,98617.16
2023-03-25T12:58:01.585Z,98603.69
2023-03-25T13:03:21.594Z,98609.47
2023-03-25T13:08:32.372Z,98623.94
2023-03-25T13:13:37.103Z,98601.69
2023-03-25T13:18:46.139Z,98583.41
2023-03-25T13:23:54.638Z,98576.56
2023-03-25T13:29:12.149Z,98571.41
2023-03-25T13:34:28.481Z,98560.63
2023-03-25T13:39:37.641Z,98557.81
2023-03-25T13:44:43.207Z,98548.06
2023-03-25T13:49:53.114Z,98559.72
2023-03-25T13:55:01.426Z,98553.19
2023-03-25T14:00:12.418Z,98559.16
2023-03-25T14:05:32.455Z,98560.94
2023-03-25T14:10:53.814Z,98557.38
2023-03-25T14:16:27.471Z,98545.34
2023-03-25T14:21:56.008Z,98536.28
2023-03-25T14:27:19.776Z,98535.47
2023-03-25T14:32:21.331Z,98539.63
2023-03-25T14:37:26.121Z,98665.72
2023-03-25T14:42:29.443Z,98692.47
2023-03-25T14:47:34.022Z,98679.84
2023-03-25T14:52:49.459Z,98666.22
2023-03-25T14:58:00.614Z,98654.78
2023-03-25T15:03:12.810Z,98634.41
2023-03-25T15:08:17.740Z,98622.53
2023-03-25T15:13:26.026Z,98592.53
2023-03-25T15:18:37.203Z,98592.81
2023-03-25T15:23:49.678Z,98596.72
2023-03-25T15:29:28.315Z,98606.47
2023-03-25T15:34:55.385Z,98597.56
2023-03-25T15:40:12.945Z,98605.22
2023-03-25T15:45:29.524Z,98611.75
2023-03-25T15:50:37.490Z,98625.44
2023-03-25T15:55:39.122Z,98625.41
2023-03-25T16:00:47.276Z,98634.16
2023-03-25T16:05:55.518Z,98639.75
2023-03-25T16:10:57.293Z,98635.41
2023-03-25T16:15:59.126Z,98637.56
2023-03-25T16:21:03.074Z,98641.69
2023-03-25T16:26:05.553Z,98638.00
2023-03-25T16:31:29.115Z,98638.00
2023-03-25T16:36:30.868Z,98647.22
2023-03-25T16:41:32.448Z,98633.97
2023-03-25T16:46:34.208Z,98636.59
2023-03-25T16:51:39.067Z,98635.72
2023-03-25T16:56:43.287Z,98631.88
2023-03-25T17:01:55.481Z,98639.81
2023-03-25T17:07:00.940Z,98632.13
2023-03-25T17:12:08.023Z,98641.53
2023-03-25T17:17:23.038Z,98628.25
2023-03-25T17:22:35.254Z,98621.88
2023-03-25T17:27:38.758Z,98630.75
2023-03-25T17:32:44.812Z,98637.97
2023-03-25T17:37:50.625Z,98638.50
2023-03-25T17:42:53.429Z,98648.41
2023-03-25T17:47:55.239Z,98654.59
2023-03-25T17:52:57.520Z,98646.34
2023-03-25T17:57:59.139Z,98642.75
2023-03-25T18:03:00.758Z,98641.88
2023-03-25T18:08:03.852Z,98643.66
2023-03-25T18:13:05.495Z,98647.00
2023-03-25T18:18:17.897Z,98649.03
2023-03-25T18:23:19.506Z,98659.16
2023-03-25T18:28:21.779Z,98676.97
2023-03-25T18:33:23.909Z,98677.91
2023-03-25T18:38:27.565Z,98684.16
2023-03-25T18:43:29.184Z,98676.25
2023-03-25T18:48:30.850Z,98680.66
2023-03-25T18:53:32.512Z,98680.09
2023-03-25T18:58:36.492Z,98674.84
2023-03-25T19:03:41.298Z,98672.16
2023-03-25T19:08:44.445Z,98679.72
2023-03-25T19:13:46.067Z,98674.34
2023-03-25T19:18:47.944Z,98673.09
2023-03-25T19:23:49.863Z,98668.38
2023-03-25T19:28:51.723Z,98668.91
2023-03-25T19:33:53.337Z,98686.72
2023-03-25T19:38:58.799Z,98676.59
2023-03-25T19:44:00.569Z,98701.34
2023-03-25T19:49:02.199Z,98717.34
2023-03-25T19:54:04.066Z,98746.50
2023-03-25T19:59:05.700Z,98751.56
2023-03-25T20:04:07.355Z,98706.41
2023-03-25T20:09:10.643Z,98674.38
2023-03-25T20:14:12.274Z,98682.94
2023-03-25T20:19:13.879Z,98667.97
2023-03-25T20:24:15.831Z,98665.44
2023-03-25T20:29:19.593Z,98668.41
2023-03-25T20:34:21.301Z,98683.38
2023-03-25T20:39:24.685Z,98710.25
2023-03-25T20:44:26.348Z,98666.63
2023-03-25T20:49:28.006Z,98646.50
2023-03-25T20:54:29.718Z,98650.25
2023-03-25T20:59:31.871Z,98635.03
2023-03-25T21:04:33.471Z,98639.47
2023-03-25T21:09:36.044Z,98647.41
2023-03-25T21:14:38.008Z,98633.84
2023-03-25T21:19:40.168Z,98629.78
2023-03-25T21:24:41.822Z,98645.97
2023-03-25T21:29:43.971Z,98649.47
2023-03-25T21:34:45.563Z,98636.53
2023-03-25T21:39:48.029Z,98641.41
2023-03-25T21:44:49.626Z,98636.72
2023-03-25T21:49:51.288Z,98635.72
2023-03-25T21:54:54.934Z,98639.22
2023-03-25T21:59:57.098Z,98651.53
2023-03-25T22:04:58.682Z,98643.47
2023-03-25T22:10:00.339Z,98654.06
2023-03-25T22:15:02.273Z,98654.47
2023-03-25T22:20:05.518Z,98654.38
2023-03-25T22:25:08.811Z,98656.00
2023-03-25T22:30:11.284Z,98653.97
2023-03-25T22:35:14.232Z,98658.31
2023-03-25T22:40:15.837Z,98653.56
2023-03-25T22:45:17.879Z,98654.03
2023-03-25T22:50:19.785Z,98646.88
2023-03-25T22:55:21.403Z,98647.25
2023-03-25T23:00:25.908Z,98648.53
2023-03-25T23:05:27.511Z,98640.09
2023-03-25T23:10:29.128Z,98639.59
2023-03-25T23:15:30.713Z,98638.47
2023-03-25T23:20:32.387Z,98648.34
2023-03-25T23:25:33.992Z,98637.38
2023-03-25T23:30:36.048Z,98641.72
2023-03-25T23:35:37.668Z,98641.00
2023-03-25T23:40:39.289Z,98642.84
2023-03-25T23:45:42.022Z,98647.19
2023-03-25T23:50:47.351Z,98663.25
2023-03-25T23:55:55.586Z,98653.59
